createdAt,value
2019-03-21T00:01:06.840Z,-2.15
2019-03-21T00:03:36.091Z,-2.06
2019-03-21T00:06:05.518Z,-2.21
2019-03-21T00:08:33.424Z,-2.07
2019-03-21T00:11:38.156Z,-2.07
2019-03-21T00:14:16.676Z,-2.09
2019-03-21T00:16:44.444Z,-2.39
2019-03-21T00:19:12.501Z,-2.59
2019-03-21T00:21:40.669Z,-2.59
2019-03-21T00:24:08.818Z,-2.51
2019-03-21T00:26:37.071Z,-2.58
2019-03-21T00:29:06.003Z,-2.73
2019-03-21T00:31:34.696Z,-2.89
2019-03-21T00:34:03.742Z,-2.95
2019-03-21T00:36:31.762Z,-2.95
2019-03-21T00:39:00.534Z,-2.84
2019-03-21T00:41:28.668Z,-2.97
2019-03-21T00:44:00.551Z,-3.02
2019-03-21T00:46:29.575Z,-3.08
2019-03-21T00:48:59.189Z,-3.06
2019-03-21T00:51:27.559Z,-2.90
2019-03-21T00:53:56.980Z,-2.88
2019-03-21T00:56:26.002Z,-2.79
2019-03-21T00:58:55.688Z,-2.67
2019-03-21T01:01:23.933Z,-2.78
2019-03-21T01:03:54.093Z,-2.80
2019-03-21T01:06:22.277Z,-2.82
2019-03-21T01:08:52.431Z,-3.01
2019-03-21T01:11:20.849Z,-3.09
2019-03-21T01:13:49.768Z,-3.09
2019-03-21T01:16:18.017Z,-3.01
2019-03-21T01:18:46.182Z,-3.03
2019-03-21T01:21:15.379Z,-3.28
2019-03-21T01:23:43.564Z,-3.39
2019-03-21T01:26:11.707Z,-3.24
2019-03-21T01:28:40.147Z,-3.30
2019-03-21T01:31:08.470Z,-3.33
2019-03-21T01:33:36.558Z,-3.46
2019-03-21T01:36:05.514Z,-3.53
2019-03-21T01:38:33.720Z,-3.60
2019-03-21T01:41:02.019Z,-3.32
2019-03-21T01:43:30.190Z,-3.26
2019-03-21T01:45:59.267Z,-3.35
2019-03-21T01:48:28.358Z,-3.48
2019-03-21T01:50:56.820Z,-3.46
2019-03-21T01:53:25.905Z,-3.49
2019-03-21T01:55:53.735Z,-3.06
2019-03-21T01:58:22.199Z,-3.04
2019-03-21T02:00:50.649Z,-2.72
2019-03-21T02:03:19.419Z,-2.72
2019-03-21T02:05:47.505Z,-2.46
2019-03-21T02:08:15.592Z,-2.88
2019-03-21T02:10:45.478Z,-2.97
2019-03-21T02:13:13.989Z,-3.06
2019-03-21T02:15:42.767Z,-3.32
2019-03-21T02:18:10.594Z,-3.21
2019-03-21T02:20:38.892Z,-3.21
2019-03-21T02:23:08.639Z,-3.04
2019-03-21T02:25:38.105Z,-3.07
2019-03-21T02:28:06.337Z,-3.34
2019-03-21T02:30:35.630Z,-3.60
2019-03-21T02:33:10.477Z,-3.71
2019-03-21T02:35:38.299Z,-3.79
2019-03-21T02:38:06.388Z,-3.80
2019-03-21T02:40:34.856Z,-3.88
2019-03-21T02:43:04.041Z,-3.73
2019-03-21T02:45:31.860Z,-3.24
2019-03-21T02:48:00.279Z,-3.38
2019-03-21T02:50:32.800Z,-3.64
2019-03-21T02:53:24.783Z,-3.60
2019-03-21T02:55:54.662Z,-3.44
2019-03-21T02:58:22.887Z,-3.02
2019-03-21T03:00:50.992Z,-2.97
2019-03-21T03:03:19.435Z,-3.07
2019-03-21T03:05:48.028Z,-2.94
2019-03-21T03:08:16.185Z,-2.91
2019-03-21T03:10:46.747Z,-2.93
2019-03-21T03:13:15.525Z,-3.17
2019-03-21T03:15:43.952Z,-3.15
2019-03-21T03:18:12.691Z,-2.91
2019-03-21T03:20:40.859Z,-2.66
2019-03-21T03:23:09.420Z,-2.54
2019-03-21T03:25:37.952Z,-2.60
2019-03-21T03:28:09.122Z,-2.62
2019-03-21T03:30:38.214Z,-2.93
2019-03-21T03:33:06.695Z,-3.05
2019-03-21T03:35:34.938Z,-3.09
2019-03-21T03:38:03.049Z,-2.98
2019-03-21T03:40:34.120Z,-2.94
2019-03-21T03:43:02.932Z,-2.95
2019-03-21T03:45:37.716Z,-2.95
2019-03-21T03:48:02.193Z,-3.00
2019-03-21T03:50:30.677Z,-3.33
2019-03-21T03:53:02.534Z,-3.62
2019-03-21T03:55:31.364Z,-3.69
2019-03-21T03:58:00.133Z,-3.25
2019-03-21T04:00:29.165Z,-3.27
2019-03-21T04:02:58.370Z,-3.30
2019-03-21T04:05:26.562Z,-3.39
2019-03-21T04:07:55.417Z,-3.56
2019-03-21T04:10:29.013Z,-3.56
2019-03-21T04:12:57.852Z,-3.79
2019-03-21T04:15:28.105Z,-3.93
2019-03-21T04:17:56.632Z,-4.03
2019-03-21T04:20:26.851Z,-4.01
2019-03-21T04:22:56.892Z,-4.10
2019-03-21T04:25:31.125Z,-4.07
2019-03-21T04:27:59.798Z,-4.16
2019-03-21T04:30:28.577Z,-4.19
2019-03-21T04:32:56.909Z,-4.20
2019-03-21T04:35:25.389Z,-4.19
2019-03-21T04:37:54.270Z,-4.09
2019-03-21T04:40:22.890Z,-4.17
2019-03-21T04:42:51.402Z,-3.91
2019-03-21T04:45:20.285Z,-3.63
2019-03-21T04:47:48.670Z,-3.63
2019-03-21T04:50:19.303Z,-3.92
2019-03-21T04:52:47.059Z,-3.86
2019-03-21T04:55:15.760Z,-3.84
2019-03-21T04:57:44.336Z,-3.87
2019-03-21T05:00:24.196Z,-3.73
2019-03-21T05:02:53.586Z,-3.77
2019-03-21T05:05:21.716Z,-3.97
2019-03-21T05:07:50.267Z,-4.09
2019-03-21T05:10:19.587Z,-3.97
2019-03-21T05:12:48.120Z,-3.88
2019-03-21T05:15:19.302Z,-3.96
2019-03-21T05:17:47.933Z,-4.15
2019-03-21T05:20:19.609Z,-4.13
2019-03-21T05:22:49.602Z,-4.14
2019-03-21T05:25:18.493Z,-4.19
2019-03-21T05:27:46.318Z,-4.11
2019-03-21T05:30:20.688Z,-3.87
2019-03-21T05:32:49.215Z,-3.40
2019-03-21T05:35:18.608Z,-2.71
2019-03-21T05:37:46.743Z,-2.58
2019-03-21T05:40:15.440Z,-3.00
2019-03-21T05:42:47.759Z,-3.20
2019-03-21T05:45:16.226Z,-3.38
2019-03-21T05:47:45.584Z,-3.36
2019-03-21T05:50:15.131Z,-3.39
2019-03-21T05:52:43.846Z,-3.27
2019-03-21T05:55:13.029Z,-3.14
2019-03-21T05:57:41.941Z,-3.11
2019-03-21T06:00:16.718Z,-2.92
2019-03-21T06:02:44.807Z,-2.75
2019-03-21T06:05:13.989Z,-2.57
2019-03-21T06:08:06.814Z,-2.27
2019-03-21T06:10:38.297Z,-2.04
2019-03-21T06:13:06.692Z,-1.78
2019-03-21T06:15:36.611Z,-1.57
2019-03-21T06:18:13.144Z,-1.33
2019-03-21T06:20:56.306Z,-1.13
2019-03-21T06:23:59.958Z,-0.94
2019-03-21T06:27:15.148Z,-0.70
2019-03-21T06:29:43.826Z,-0.59
2019-03-21T06:32:13.235Z,-0.40
2019-03-21T06:34:41.578Z,-0.32
2019-03-21T06:37:09.666Z,-0.21
2019-03-21T06:39:38.625Z,0.05
2019-03-21T06:42:07.284Z,0.05
2019-03-21T06:44:36.013Z,0.15
2019-03-21T06:47:04.498Z,0.32
2019-03-21T06:49:32.969Z,0.50
2019-03-21T06:52:02.684Z,0.50
2019-03-21T06:54:31.625Z,0.53
2019-03-21T06:57:02.520Z,0.62
2019-03-21T06:59:29.736Z,0.71
2019-03-21T07:01:58.432Z,0.96
2019-03-21T07:04:27.403Z,0.96
2019-03-21T07:06:55.553Z,1.01
2019-03-21T07:09:23.891Z,1.13
2019-03-21T07:11:53.351Z,1.35
2019-03-21T07:14:21.514Z,1.49
2019-03-21T07:17:00.059Z,1.50
2019-03-21T07:19:20.454Z,1.67
2019-03-21T07:21:48.783Z,1.69
2019-03-21T07:24:17.214Z,1.81
2019-03-21T07:26:45.650Z,1.97
2019-03-21T07:29:14.085Z,2.28
2019-03-21T07:31:43.098Z,2.22
2019-03-21T07:34:14.055Z,2.41
2019-03-21T07:36:42.931Z,2.65
2019-03-21T07:39:11.331Z,2.66
2019-03-21T07:41:40.586Z,2.68
2019-03-21T07:44:09.018Z,2.96
2019-03-21T07:46:37.459Z,3.06
2019-03-21T07:49:06.657Z,3.27
2019-03-21T07:51:34.968Z,3.23
2019-03-21T07:54:04.983Z,3.44
2019-03-21T07:56:33.564Z,3.55
2019-03-21T07:59:02.355Z,3.59
2019-03-21T08:01:31.181Z,3.70
2019-03-21T08:04:02.733Z,3.87
2019-03-21T08:06:30.284Z,4.16
2019-03-21T08:08:59.141Z,4.42
2019-03-21T08:11:27.490Z,4.37
2019-03-21T08:13:56.138Z,4.72
2019-03-21T08:16:24.780Z,4.72
2019-03-21T08:18:52.571Z,5.10
2019-03-21T08:21:21.240Z,5.00
2019-03-21T08:23:50.126Z,5.00
2019-03-21T08:26:18.487Z,4.76
2019-03-21T08:28:47.135Z,4.91
2019-03-21T08:31:23.694Z,5.11
2019-03-21T08:33:52.146Z,5.12
2019-03-21T08:36:20.595Z,5.36
2019-03-21T08:38:49.082Z,5.41
2019-03-21T08:41:18.018Z,5.54
2019-03-21T08:43:46.909Z,5.54
2019-03-21T08:46:17.318Z,5.88
2019-03-21T08:48:45.868Z,5.87
2019-03-21T08:51:14.172Z,6.03
2019-03-21T08:53:43.058Z,5.97
2019-03-21T08:56:11.473Z,6.44
2019-03-21T08:58:39.905Z,6.66
2019-03-21T09:01:08.352Z,6.72
2019-03-21T09:03:36.745Z,6.90
2019-03-21T09:06:05.882Z,7.10
2019-03-21T09:08:34.870Z,7.07
2019-03-21T09:11:03.845Z,7.17
2019-03-21T09:13:32.677Z,7.11
2019-03-21T09:16:01.635Z,7.31
2019-03-21T09:18:30.493Z,7.26
2019-03-21T09:20:59.038Z,7.37
2019-03-21T09:23:27.389Z,7.60
2019-03-21T09:25:56.298Z,7.49
2019-03-21T09:28:24.655Z,7.52
2019-03-21T09:30:56.431Z,7.80
2019-03-21T09:33:24.786Z,7.87
2019-03-21T09:35:52.521Z,7.61
2019-03-21T09:38:21.230Z,7.77
2019-03-21T09:40:52.109Z,7.95
2019-03-21T09:43:21.833Z,7.52
2019-03-21T09:45:50.591Z,7.81
2019-03-21T09:48:19.343Z,7.96
2019-03-21T09:50:47.544Z,7.93
2019-03-21T09:53:16.655Z,8.09
2019-03-21T09:55:44.827Z,8.03
2019-03-21T09:58:13.189Z,8.04
2019-03-21T10:00:41.181Z,7.82
2019-03-21T10:03:09.021Z,8.46
2019-03-21T10:05:37.427Z,8.20
2019-03-21T10:08:06.340Z,8.38
2019-03-21T10:10:34.992Z,8.39
2019-03-21T10:13:04.335Z,8.41
2019-03-21T10:15:33.159Z,8.31
2019-03-21T10:18:03.028Z,8.51
2019-03-21T10:20:31.567Z,8.55
2019-03-21T10:23:02.170Z,8.98
2019-03-21T10:25:30.756Z,8.59
2019-03-21T10:28:00.060Z,8.87
2019-03-21T10:30:46.775Z,8.75
2019-03-21T10:33:15.353Z,9.07
2019-03-21T10:35:43.841Z,9.09
2019-03-21T10:38:11.980Z,9.27
2019-03-21T10:40:41.441Z,8.93
2019-03-21T10:43:10.671Z,8.90
2019-03-21T10:45:39.914Z,9.37
2019-03-21T10:48:08.109Z,9.57
2019-03-21T10:50:38.126Z,9.27
2019-03-21T10:53:06.902Z,9.48
2019-03-21T10:55:36.516Z,9.68
2019-03-21T10:58:05.805Z,9.39
2019-03-21T11:00:33.585Z,9.63
2019-03-21T11:03:01.910Z,9.80
2019-03-21T11:05:31.310Z,9.74
2019-03-21T11:08:01.349Z,9.92
2019-03-21T11:10:29.842Z,9.92
2019-03-21T11:12:58.293Z,9.95
2019-03-21T11:15:26.922Z,9.91
2019-03-21T11:17:55.348Z,10.12
2019-03-21T11:20:33.707Z,9.81
2019-03-21T11:23:02.855Z,10.14
2019-03-21T11:25:31.826Z,10.03
2019-03-21T11:28:02.268Z,9.87
2019-03-21T11:30:35.720Z,10.01
2019-03-21T11:33:04.459Z,9.99
2019-03-21T11:35:33.013Z,10.10
2019-03-21T11:38:01.653Z,10.63
2019-03-21T11:40:30.451Z,10.30
2019-03-21T11:42:59.146Z,10.17
2019-03-21T11:45:27.896Z,10.43
2019-03-21T11:47:56.286Z,10.56
2019-03-21T11:50:24.905Z,10.45
2019-03-21T11:52:52.932Z,10.28
2019-03-21T11:55:21.065Z,10.87
2019-03-21T11:57:51.306Z,10.78
2019-03-21T12:00:19.734Z,10.66
2019-03-21T12:02:47.931Z,10.71
2019-03-21T12:05:16.339Z,10.68
2019-03-21T12:07:47.286Z,10.77
2019-03-21T12:10:17.108Z,10.88
2019-03-21T12:12:45.375Z,11.04
2019-03-21T12:15:14.797Z,11.13
2019-03-21T12:17:43.707Z,10.85
2019-03-21T12:20:11.981Z,10.91
2019-03-21T12:22:40.599Z,11.03
2019-03-21T12:25:08.574Z,11.38
2019-03-21T12:27:37.629Z,11.21
2019-03-21T12:32:57.134Z,11.34
2019-03-21T12:35:27.837Z,11.44
2019-03-21T12:37:55.172Z,11.20
2019-03-21T12:40:23.241Z,11.15
2019-03-21T12:42:52.041Z,11.61
2019-03-21T12:45:22.851Z,11.39
2019-03-21T12:47:51.494Z,11.56
2019-03-21T12:50:20.740Z,11.44
2019-03-21T12:52:48.661Z,11.27
2019-03-21T12:55:17.192Z,11.41
2019-03-21T12:57:45.349Z,11.50
2019-03-21T13:00:13.436Z,11.63
2019-03-21T13:02:43.177Z,11.89
2019-03-21T13:05:16.263Z,11.70
2019-03-21T13:07:45.158Z,11.56
2019-03-21T13:10:13.956Z,11.47
2019-03-21T13:12:42.569Z,11.75
2019-03-21T13:15:10.873Z,11.71
2019-03-21T13:17:38.957Z,11.64
2019-03-21T13:20:07.430Z,11.74
2019-03-21T13:22:35.915Z,11.81
2019-03-21T13:25:03.805Z,11.97
2019-03-21T13:27:33.612Z,11.96
2019-03-21T13:30:03.622Z,11.98
2019-03-21T13:32:32.128Z,12.08
2019-03-21T13:35:01.184Z,12.06
2019-03-21T13:37:32.282Z,12.14
2019-03-21T13:40:00.502Z,12.22
2019-03-21T13:42:31.387Z,12.04
2019-03-21T13:44:59.622Z,11.86
2019-03-21T13:47:28.360Z,12.18
2019-03-21T13:49:57.214Z,12.16
2019-03-21T13:52:25.043Z,12.35
2019-03-21T13:54:56.050Z,12.18
2019-03-21T13:57:24.803Z,12.00
2019-03-21T13:59:52.846Z,12.07
2019-03-21T14:02:21.511Z,12.05
2019-03-21T14:04:49.615Z,12.25
2019-03-21T14:07:18.523Z,12.21
2019-03-21T14:09:47.467Z,11.95
2019-03-21T14:12:16.316Z,11.93
2019-03-21T14:14:47.106Z,12.24
2019-03-21T14:17:21.986Z,12.27
2019-03-21T14:19:45.727Z,12.45
2019-03-21T14:22:15.866Z,12.42
2019-03-21T14:24:44.010Z,12.41
2019-03-21T14:27:12.763Z,12.38
2019-03-21T14:29:42.012Z,12.36
2019-03-21T14:32:10.180Z,12.33
2019-03-21T14:34:38.650Z,12.49
2019-03-21T14:37:06.863Z,12.64
2019-03-21T14:39:35.198Z,12.44
2019-03-21T14:42:02.987Z,12.33
2019-03-21T14:44:31.814Z,12.22
2019-03-21T14:46:59.949Z,12.32
2019-03-21T14:49:28.490Z,12.21
2019-03-21T14:51:57.501Z,12.52
2019-03-21T14:54:25.463Z,12.39
2019-03-21T14:56:53.577Z,12.39
2019-03-21T14:59:21.413Z,12.27
2019-03-21T15:01:49.540Z,12.40
2019-03-21T15:04:17.312Z,12.29
2019-03-21T15:06:46.252Z,12.31
2019-03-21T15:09:14.397Z,12.42
2019-03-21T15:11:42.625Z,12.39
2019-03-21T15:14:10.785Z,12.18
2019-03-21T15:16:39.960Z,12.08
2019-03-21T15:19:08.362Z,12.07
2019-03-21T15:21:36.516Z,12.05
2019-03-21T15:24:04.785Z,11.95
2019-03-21T15:26:33.260Z,11.99
2019-03-21T15:29:01.348Z,11.91
2019-03-21T15:31:29.227Z,11.98
2019-03-21T15:33:58.553Z,12.04
2019-03-21T15:36:26.912Z,11.99
2019-03-21T15:38:54.978Z,12.09
2019-03-21T15:41:23.215Z,11.99
2019-03-21T15:43:53.133Z,11.99
2019-03-21T15:46:21.369Z,11.83
2019-03-21T15:48:49.481Z,11.88
2019-03-21T15:51:18.251Z,11.92
2019-03-21T15:53:54.674Z,11.92
2019-03-21T15:56:16.762Z,11.84
2019-03-21T15:58:45.899Z,11.80
2019-03-21T16:03:46.576Z,11.76
2019-03-21T16:06:15.346Z,11.72
2019-03-21T16:08:44.014Z,11.60
2019-03-21T16:11:13.437Z,11.65
2019-03-21T16:13:42.757Z,11.61
2019-03-21T16:16:10.692Z,11.52
2019-03-21T16:18:39.147Z,11.44
2019-03-21T16:21:08.147Z,11.43
2019-03-21T16:23:36.540Z,11.35
2019-03-21T16:26:04.968Z,11.30
2019-03-21T16:28:33.718Z,11.20
2019-03-21T16:31:02.232Z,11.16
2019-03-21T16:33:31.010Z,11.09
2019-03-21T16:36:02.927Z,11.02
2019-03-21T16:38:32.323Z,10.92
2019-03-21T16:41:03.801Z,10.83
2019-03-21T16:43:32.976Z,10.63
2019-03-21T16:46:03.383Z,10.54
2019-03-21T16:48:31.439Z,10.48
2019-03-21T16:50:59.642Z,10.42
2019-03-21T16:53:28.472Z,10.34
2019-03-21T16:55:56.983Z,10.21
2019-03-21T16:58:25.189Z,10.20
2019-03-21T17:00:53.377Z,9.99
2019-03-21T17:03:22.203Z,9.74
2019-03-21T17:05:51.532Z,9.58
2019-03-21T17:08:20.439Z,9.63
2019-03-21T17:10:49.039Z,9.42
2019-03-21T17:13:18.232Z,9.30
2019-03-21T17:15:46.364Z,9.21
2019-03-21T17:18:14.447Z,9.23
2019-03-21T17:20:43.291Z,9.00
2019-03-21T17:23:11.692Z,8.75
2019-03-21T17:25:41.214Z,8.58
2019-03-21T17:28:09.521Z,8.55
2019-03-21T17:30:38.106Z,8.28
2019-03-21T17:33:06.184Z,8.17
2019-03-21T17:35:34.235Z,7.88
2019-03-21T17:38:02.630Z,7.88
2019-03-21T17:40:31.915Z,7.76
2019-03-21T17:43:00.247Z,7.59
2019-03-21T17:45:29.313Z,7.68
2019-03-21T17:47:57.903Z,7.41
2019-03-21T17:50:26.077Z,7.40
2019-03-21T17:52:54.683Z,7.35
2019-03-21T17:55:23.066Z,7.21
2019-03-21T17:57:51.826Z,7.06
2019-03-21T18:00:21.799Z,6.92
2019-03-21T18:02:49.928Z,6.65
2019-03-21T18:05:18.962Z,6.49
2019-03-21T18:07:47.019Z,6.83
2019-03-21T18:10:26.167Z,6.69
2019-03-21T18:12:54.631Z,6.26
2019-03-21T18:15:23.807Z,5.96
2019-03-21T18:17:51.961Z,6.09
2019-03-21T18:20:19.920Z,5.38
2019-03-21T18:22:48.348Z,5.35
2019-03-21T18:25:16.784Z,5.38
2019-03-21T18:27:45.736Z,5.56
2019-03-21T18:30:14.551Z,5.26
2019-03-21T18:32:46.299Z,5.12
2019-03-21T18:35:15.445Z,5.50
2019-03-21T18:37:44.265Z,5.56
2019-03-21T18:40:12.656Z,5.74
2019-03-21T18:42:42.367Z,5.47
2019-03-21T18:45:15.016Z,5.57
2019-03-21T18:47:44.619Z,5.59
2019-03-21T18:50:14.358Z,5.78
2019-03-21T18:52:42.575Z,5.89
2019-03-21T18:55:12.832Z,5.91
2019-03-21T18:57:41.949Z,6.12
2019-03-21T19:00:11.873Z,6.21
2019-03-21T19:02:40.719Z,6.30
2019-03-21T19:05:09.060Z,6.27
2019-03-21T19:07:39.603Z,6.10
2019-03-21T19:10:08.472Z,6.10
2019-03-21T19:12:38.618Z,6.12
2019-03-21T19:15:09.232Z,6.23
2019-03-21T19:17:37.642Z,6.46
2019-03-21T19:20:06.782Z,6.45
2019-03-21T19:22:35.769Z,6.45
2019-03-21T19:25:17.505Z,6.31
2019-03-21T19:27:44.949Z,6.33
2019-03-21T19:30:13.338Z,6.26
2019-03-21T19:32:41.835Z,6.16
2019-03-21T19:35:11.320Z,6.15
2019-03-21T19:37:40.252Z,6.14
2019-03-21T19:40:11.255Z,6.20
2019-03-21T19:42:40.159Z,6.19
2019-03-21T19:45:15.226Z,6.19
2019-03-21T19:47:44.425Z,6.17
2019-03-21T19:50:13.551Z,6.07
2019-03-21T19:52:42.031Z,5.91
2019-03-21T19:55:12.947Z,5.82
2019-03-21T19:57:42.381Z,5.64
2019-03-21T20:00:13.194Z,5.35
2019-03-21T20:02:41.112Z,5.05
2019-03-21T20:05:10.508Z,4.61
2019-03-21T20:07:42.532Z,4.09
2019-03-21T20:10:13.042Z,3.82
2019-03-21T20:12:46.232Z,3.44
2019-03-21T20:15:17.798Z,3.28
2019-03-21T20:17:48.355Z,3.02
2019-03-21T20:20:19.077Z,2.84
2019-03-21T20:22:48.908Z,2.84
2019-03-21T20:25:18.148Z,2.98
2019-03-21T20:27:48.220Z,3.21
2019-03-21T20:30:17.393Z,3.46
2019-03-21T20:32:46.528Z,3.71
2019-03-21T20:35:16.795Z,3.71
2019-03-21T20:37:45.610Z,3.93
2019-03-21T20:40:13.893Z,4.17
2019-03-21T20:42:42.474Z,4.32
2019-03-21T20:45:12.015Z,4.66
2019-03-21T20:47:40.132Z,4.92
2019-03-21T20:50:10.643Z,4.94
2019-03-21T20:52:39.443Z,4.95
2019-03-21T20:55:09.335Z,5.04
2019-03-21T20:57:38.374Z,5.05
2019-03-21T21:00:26.582Z,4.85
2019-03-21T21:02:55.172Z,4.85
2019-03-21T21:05:23.740Z,4.70
2019-03-21T21:07:52.031Z,4.63
2019-03-21T21:10:20.058Z,4.64
2019-03-21T21:12:48.475Z,4.57
2019-03-21T21:15:17.839Z,4.56
2019-03-21T21:17:48.936Z,4.51
2019-03-21T21:20:18.024Z,4.32
2019-03-21T21:22:46.237Z,4.11
2019-03-21T21:25:14.689Z,3.49
2019-03-21T21:27:49.861Z,2.89
2019-03-21T21:30:16.083Z,2.59
2019-03-21T21:32:45.410Z,2.51
2019-03-21T21:35:14.276Z,2.42
2019-03-21T21:37:43.463Z,2.14
2019-03-21T21:40:12.308Z,1.94
2019-03-21T21:42:42.246Z,1.82
2019-03-21T21:45:11.314Z,1.96
2019-03-21T21:47:40.011Z,2.43
2019-03-21T21:50:09.322Z,2.70
2019-03-21T21:52:42.232Z,2.68
2019-03-21T21:55:10.909Z,2.99
2019-03-21T21:57:39.115Z,2.61
2019-03-21T22:00:08.327Z,2.84
2019-03-21T22:02:36.825Z,2.44
2019-03-21T22:05:06.585Z,2.76
2019-03-21T22:07:35.631Z,3.14
2019-03-21T22:10:04.569Z,3.32
2019-03-21T22:12:34.390Z,3.46
2019-03-21T22:15:03.782Z,3.32
2019-03-21T22:17:31.578Z,2.93
2019-03-21T22:20:00.546Z,2.26
2019-03-21T22:22:29.018Z,1.91
2019-03-21T22:24:56.822Z,1.73
2019-03-21T22:27:25.558Z,1.45
2019-03-21T22:29:53.981Z,1.37
2019-03-21T22:32:23.882Z,1.05
2019-03-21T22:34:53.602Z,0.75
2019-03-21T22:37:21.705Z,0.63
2019-03-21T22:39:51.629Z,0.61
2019-03-21T22:42:19.715Z,0.64
2019-03-21T22:44:48.854Z,0.64
2019-03-21T22:47:16.650Z,0.50
2019-03-21T22:49:45.322Z,0.57
2019-03-21T22:52:14.049Z,0.53
2019-03-21T22:54:42.583Z,0.44
2019-03-21T22:57:11.296Z,0.45
2019-03-21T22:59:40.273Z,0.38
2019-03-21T23:02:08.752Z,0.37
2019-03-21T23:04:37.111Z,0.17
2019-03-21T23:07:05.710Z,0.18
2019-03-21T23:09:34.163Z,0.19
2019-03-21T23:12:02.701Z,-0.01
2019-03-21T23:14:31.563Z,-0.09
2019-03-21T23:17:00.640Z,-0.21
2019-03-21T23:19:28.731Z,-0.26
2019-03-21T23:21:57.450Z,-0.23
2019-03-21T23:24:26.301Z,-0.14
2019-03-21T23:26:54.702Z,-0.22
2019-03-21T23:29:24.452Z,-0.26
2019-03-21T23:31:52.864Z,-0.37
2019-03-21T23:34:21.469Z,-0.43
2019-03-21T23:36:49.768Z,-0.30
2019-03-21T23:39:18.724Z,-0.12
2019-03-21T23:41:47.604Z,-0.12
2019-03-21T23:44:15.365Z,-0.16
2019-03-21T23:46:44.284Z,-0.22
2019-03-21T23:49:13.336Z,-0.17
2019-03-21T23:51:42.687Z,-0.23
2019-03-21T23:54:11.461Z,-0.39
2019-03-21T23:56:40.327Z,-0.55
2019-03-21T23:59:10.177Z,-0.70
